This demonstration page uses our WeatherBlox Daily Observations layout. Learn more.

36.17497, -115.13722

Hourly Observations for October 8, 2018

Temp ( °F °C ) Dew Point ( °F °C ) Humidity (%) Winds ( mph kmh ) Pressure ( in mb ) Visibility ( mi km ) Precip ( " mm )
12:53 am 00:53 Cloudy 64 17.8 34 1.1 33 33 N 8 13 29.77 1008 10 16.09344 0 0
1:53 am 01:53 Mostly Cloudy 65 18.3 32 0 29 29 NNW 16 26 29.77 1008 10 16.09344 0 0
2:53 am 02:53 Mostly Cloudy 64 17.8 32 0 30 30 NNW 15 24 29.8 1009 10 16.09344 0 0
3:53 am 03:53 Mostly Clear 63 17.2 32 0 31 31 NNW 16 26 29.8 1009 10 16.09344 0 0
4:53 am 04:53 Mostly Clear 62 16.7 32 0 32 32 NNW 18 30 29.8 1009 10 16.09344 0 0
5:53 am 05:53 Clear 62 16.7 32 0 32 32 NNW 17 28 29.8 1009 10 16.09344 0 0
6:53 am 06:53 Sunny 62 16.7 32 0 32 32 NNW 16 26 29.83 1010 10 16.09344 0 0
7:53 am 07:53 Sunny 63 17.2 32 0 31 31 NNW 16 26 29.83 1010 10 16.09344 0 0
8:53 am 08:53 Sunny 65 18.3 32 0 29 29 NNW 17 28 29.85 1011 10 16.09344 0 0
9:53 am 09:53 Sunny 67 19.4 31 -0.6 26 26 NNW 18 30 29.83 1010 10 16.09344 0 0
10:53 am 10:53 Sunny 70 21.1 30 -1.1 23 23 N 16 26 29.83 1010 10 16.09344 0 0
11:53 am 11:53 Sunny 71 21.7 29 -1.7 21 21 NW 17 28 29.83 1010 10 16.09344 0 0
12:53 pm 12:53 Sunny 71 21.7 28 -2.2 20 20 N 7 11 29.8 1009 10 16.09344 0 0
1:53 pm 13:53 Sunny 73 22.8 27 -2.8 18 18 NNW 8 13 29.77 1008 10 16.09344 0 0
2:53 pm 14:53 Sunny 75 23.9 25 -3.9 15 15 N 8 13 29.77 1008 10 16.09344 0 0
3:53 pm 15:53 Sunny 76 24.4 24 -4.4 14 14 N 12 19 29.74 1007 10 16.09344 0 0
4:53 pm 16:53 Sunny 75 23.9 22 -5.6 14 14 NNW 13 20 29.74 1007 10 16.09344 0 0
5:53 pm 17:53 Sunny 73 22.8 24 -4.4 16 16 NW 8 13 29.74 1007 10 16.09344 0 0
6:53 pm 18:53 Clear 73 22.8 26 -3.3 17 17 NE 5 7 29.77 1008 10 16.09344 0 0
7:13 pm 19:13 Clear with Nearby Thunderstorms 72 22.2 26 -3.3 18 18 NNE 5 7 29.68 1005 10 16.09344 0 0
7:28 pm 19:28 Clear 72 22.2 25 -3.9 17 17 NNE 3 6 29.68 1005 10 16.09344 0 0
7:53 pm 19:53 Clear 72 22.2 25 -3.9 17 17 Calm 29.77 1008 10 16.09344 0 0
8:53 pm 20:53 Clear 70 21.1 28 -2.2 21 21 Calm 29.8 1009 10 16.09344 0 0
9:53 pm 21:53 Clear 69 20.6 28 -2.2 22 22 W 5 7 29.8 1009 10 16.09344 0 0
10:53 pm 22:53 Clear 65 18.3 30 -1.1 27 27 N 3 6 29.8 1009 10 16.09344 0 0
11:53 pm 23:53 Clear 65 18.3 27 -2.8 24 24 E 6 9 29.8 1009 10 16.09344 0 0

Powered by AerisWeather